Terminal Aerodrome Forecast
Issued by NWS

Home | Current Version | Previous Version | Text Only | Print | Product List | Glossary On
Versions: 1 2 3 4 5 6 7 8 9 10 11 12 13 14 15 16 17 18 19 20 21
000
FTUS43 KGRR 271140
TAFMKG
TAF
KMKG 271140Z 2712/2812 26013G23KT P6SM SCT050 BKN100
     FM271600 25016G26KT P6SM VCSH OVC040
     FM272200 25011KT P6SM -SHRA OVC025
     FM280300 25006KT 6SM -SHRA BR OVC015
     FM280600 33004KT 5SM -SHRA BR OVC007=

USA.gov is the U.S. government's official web portal to all federal, state and local government web resources and services.